Time;durP1;ratioP1;P1;durP2;ratioP2;P2;SDS_P1;SDS_P2;PMS_P1;PMS_P2;Temp;Humidity;BMP_temperature;BMP_pressure;BME280_temperature;BME280_humidity;BME280_pressure;Samples;Min_cycle;Max_cycle;Signal;HPM_P1;HPM_P2
2023/03/18 00:01:08;;;;;;;16.90;12.63;;;5.40;99.90;;;;;;5093886;28;20223;-78
2023/03/18 00:03:37;;;;;;;18.23;12.73;;;5.30;99.90;;;;;;5093705;28;20228;-78
2023/03/18 00:06:06;;;;;;;23.60;13.07;;;5.30;99.90;;;;;;5093712;28;20208;-79
2023/03/18 00:08:33;;;;;;;20.40;12.50;;;5.40;99.90;;;;;;5094040;28;20231;-79
2023/03/18 00:11:00;;;;;;;18.20;12.00;;;5.30;99.90;;;;;;5094117;28;20235;-79
2023/03/18 00:13:27;;;;;;;13.37;10.50;;;5.30;99.90;;;;;;5093986;28;20560;-79
2023/03/18 00:15:54;;;;;;;13.07;8.90;;;5.30;99.90;;;;;;5094520;28;20230;-79
2023/03/18 00:18:23;;;;;;;13.37;10.03;;;5.30;99.90;;;;;;5098237;28;20226;-80
2023/03/18 00:20:50;;;;;;;16.60;11.47;;;5.30;99.90;;;;;;5097633;28;20254;-79
2023/03/18 00:23:17;;;;;;;14.73;10.20;;;5.30;99.90;;;;;;5097086;28;20200;-79
2023/03/18 00:25:46;;;;;;;14.90;11.00;;;5.30;99.90;;;;;;5096682;28;20235;-79
2023/03/18 00:28:12;;;;;;;20.03;12.37;;;5.30;99.90;;;;;;5097404;28;20224;-79
2023/03/18 00:30:40;;;;;;;15.63;11.00;;;5.30;99.90;;;;;;5096084;28;20257;-79
2023/03/18 00:33:08;;;;;;;15.37;11.37;;;5.20;99.90;;;;;;5094619;28;20273;-74
2023/03/18 00:35:37;;;;;;;17.10;11.03;;;5.10;99.90;;;;;;5094672;28;20200;-80
2023/03/18 00:38:07;;;;;;;14.10;10.77;;;5.10;99.90;;;;;;5094272;28;20608;-77
2023/03/18 00:40:52;;;;;;;14.80;10.87;;;5.10;99.90;;;;;;5093908;28;20323;-77
2023/03/18 00:43:21;;;;;;;16.00;11.17;;;5.20;99.90;;;;;;5093695;28;20200;-78
2023/03/18 00:45:49;;;;;;;13.13;10.30;;;5.20;99.90;;;;;;5093397;28;20189;-78
2023/03/18 00:48:16;;;;;;;14.53;10.23;;;5.10;99.90;;;;;;5094165;28;20234;-78
2023/03/18 00:50:45;;;;;;;14.07;10.77;;;5.20;99.90;;;;;;5077620;28;20226;-78
2023/03/18 00:53:13;;;;;;;12.17;10.60;;;5.20;99.90;;;;;;5093392;28;20647;-78
2023/03/18 00:55:40;;;;;;;13.47;10.13;;;5.20;99.90;;;;;;5093139;28;20215;-78
2023/03/18 00:58:07;;;;;;;12.97;10.03;;;5.20;99.90;;;;;;5093037;28;20199;-78
2023/03/18 01:00:34;;;;;;;13.63;10.47;;;5.20;99.90;;;;;;5093031;28;20634;-78
2023/03/18 01:03:01;;;;;;;14.80;9.97;;;5.20;99.90;;;;;;5093102;28;20610;-78
2023/03/18 01:05:29;;;;;;;11.30;9.40;;;5.20;99.90;;;;;;5093120;28;20253;-78
2023/03/18 01:07:57;;;;;;;13.77;10.00;;;5.10;99.90;;;;;;5093120;28;20222;-77
2023/03/18 01:10:24;;;;;;;12.43;8.93;;;5.20;99.90;;;;;;5093029;28;20200;-77
2023/03/18 01:12:50;;;;;;;11.70;8.50;;;5.20;99.90;;;;;;5093105;28;20706;-77
2023/03/18 01:15:20;;;;;;;11.30;8.90;;;5.20;99.90;;;;;;5093129;28;20204;-78
2023/03/18 01:17:48;;;;;;;13.03;8.50;;;5.20;99.90;;;;;;5097100;28;20196;-78
2023/03/18 01:20:18;;;;;;;12.90;8.77;;;5.20;99.90;;;;;;5097194;28;20251;-78
2023/03/18 01:22:44;;;;;;;12.77;9.73;;;5.10;99.90;;;;;;5097088;28;20196;-78
2023/03/18 01:25:15;;;;;;;14.03;9.23;;;5.10;99.90;;;;;;5097029;28;20231;-78
2023/03/18 01:27:42;;;;;;;14.57;9.73;;;5.10;99.90;;;;;;5096935;28;20658;-77
2023/03/18 01:30:10;;;;;;;12.27;9.10;;;5.00;99.90;;;;;;5096969;28;20265;-79
2023/03/18 01:32:37;;;;;;;10.47;8.23;;;5.10;99.90;;;;;;5096703;28;20200;-78
2023/03/18 01:35:05;;;;;;;12.23;8.83;;;5.00;99.90;;;;;;5096675;28;20197;-79
2023/03/18 01:37:32;;;;;;;11.33;9.23;;;4.90;99.90;;;;;;5096803;28;20208;-78
2023/03/18 01:39:59;;;;;;;12.20;8.90;;;5.00;99.90;;;;;;5096621;28;20318;-79
2023/03/18 01:42:27;;;;;;;12.80;9.40;;;4.90;99.90;;;;;;5096778;28;20224;-79
2023/03/18 01:45:11;;;;;;;12.67;10.30;;;4.80;99.90;;;;;;5096793;28;20231;-79
2023/03/18 01:47:37;;;;;;;12.63;9.13;;;4.80;99.90;;;;;;5096578;28;20238;-80
2023/03/18 01:50:04;;;;;;;14.03;9.63;;;4.80;99.90;;;;;;5096667;28;20246;-79
2023/03/18 01:52:32;;;;;;;12.10;10.17;;;4.80;99.90;;;;;;5096669;28;20239;-79
2023/03/18 01:55:02;;;;;;;13.63;9.83;;;4.80;99.90;;;;;;5096190;28;20597;-79
2023/03/18 01:57:31;;;;;;;13.77;9.77;;;4.70;99.90;;;;;;5096345;28;20196;-79
2023/03/18 01:59:59;;;;;;;14.63;10.63;;;4.70;99.90;;;;;;5096307;28;20247;-79
2023/03/18 02:02:26;;;;;;;12.40;9.90;;;4.70;99.90;;;;;;5078438;28;20224;-79
2023/03/18 02:04:55;;;;;;;14.80;10.97;;;4.60;99.90;;;;;;5096255;28;20228;-79
2023/03/18 02:07:25;;;;;;;14.37;10.93;;;4.70;99.90;;;;;;5096870;28;20227;-70
2023/03/18 02:09:52;;;;;;;16.67;10.43;;;4.60;99.90;;;;;;5096060;28;20247;-71
2023/03/18 02:12:23;;;;;;;14.30;10.40;;;4.60;99.90;;;;;;5096122;28;20611;-70
2023/03/18 02:14:52;;;;;;;12.63;9.93;;;4.50;99.90;;;;;;5077905;28;20200;-71
2023/03/18 02:17:21;;;;;;;13.47;10.27;;;4.40;99.90;;;;;;5095945;28;20196;-71
2023/03/18 02:19:59;;;;;;;14.10;10.60;;;4.50;99.90;;;;;;5095881;28;20207;-70
2023/03/18 02:22:30;;;;;;;12.63;10.40;;;4.50;99.90;;;;;;5095976;28;20199;-70
2023/03/18 02:25:09;;;;;;;12.73;10.03;;;4.50;99.90;;;;;;5095905;28;20192;-70
2023/03/18 02:27:40;;;;;;;12.63;9.87;;;4.50;99.90;;;;;;5095694;28;20235;-70
2023/03/18 02:30:11;;;;;;;14.80;9.83;;;4.40;99.90;;;;;;5096119;28;20254;-70
2023/03/18 02:32:40;;;;;;;13.67;9.83;;;4.40;99.90;;;;;;5095651;28;20222;-71
2023/03/18 02:35:10;;;;;;;13.90;9.77;;;4.40;99.90;;;;;;5095669;28;20263;-70
2023/03/18 02:37:37;;;;;;;15.77;10.53;;;4.30;99.90;;;;;;5095652;28;20251;-70
2023/03/18 02:40:15;;;;;;;13.83;9.93;;;4.30;99.90;;;;;;5095100;28;20256;-70
2023/03/18 02:42:43;;;;;;;15.23;10.73;;;4.30;99.90;;;;;;5095610;28;20203;-70
2023/03/18 02:45:28;;;;;;;15.43;10.90;;;4.20;99.90;;;;;;5095458;28;20228;-70
2023/03/18 02:47:57;;;;;;;13.50;10.20;;;4.20;99.90;;;;;;5095478;28;20239;-71
2023/03/18 02:50:24;;;;;;;15.40;10.73;;;4.20;99.90;;;;;;5095170;28;20694;-71
2023/03/18 02:52:50;;;;;;;16.30;10.13;;;4.30;99.90;;;;;;5095486;28;20193;-70
2023/03/18 02:55:17;;;;;;;15.27;10.70;;;4.20;99.90;;;;;;5095372;28;20196;-70
2023/03/18 02:57:45;;;;;;;12.67;9.80;;;4.20;99.90;;;;;;5095159;28;20683;-70
2023/03/18 03:00:13;;;;;;;13.60;9.93;;;4.20;99.90;;;;;;5095134;28;20256;-70
2023/03/18 03:02:40;;;;;;;12.57;9.27;;;4.20;99.90;;;;;;5095153;28;20193;-70
2023/03/18 03:05:08;;;;;;;12.37;10.20;;;4.20;99.90;;;;;;5094996;28;20272;-70
2023/03/18 03:07:34;;;;;;;14.20;10.10;;;4.10;99.90;;;;;;5095192;28;20200;-70
2023/03/18 03:10:01;;;;;;;13.33;10.67;;;4.20;99.90;;;;;;5095032;28;20224;-70
2023/03/18 03:12:28;;;;;;;16.13;11.20;;;4.10;99.90;;;;;;5094973;28;20219;-70
2023/03/18 03:14:56;;;;;;;14.37;10.90;;;4.10;99.90;;;;;;5094837;28;20676;-69
2023/03/18 03:17:23;;;;;;;14.80;10.97;;;4.10;99.90;;;;;;5094723;28;20246;-70
2023/03/18 03:19:50;;;;;;;15.53;11.40;;;4.10;99.90;;;;;;5095036;28;20228;-70
2023/03/18 03:22:17;;;;;;;19.43;12.63;;;4.10;99.90;;;;;;5094746;28;20295;-70
2023/03/18 03:24:44;;;;;;;12.67;10.57;;;4.10;99.90;;;;;;5094807;28;20239;-71
2023/03/18 03:27:11;;;;;;;13.47;10.40;;;4.10;99.90;;;;;;5094643;28;20253;-70
2023/03/18 03:29:38;;;;;;;13.93;10.50;;;4.10;99.90;;;;;;5094531;28;20234;-71
2023/03/18 03:32:06;;;;;;;14.27;10.90;;;4.10;99.90;;;;;;5094473;28;20207;-71
2023/03/18 03:34:33;;;;;;;17.27;10.47;;;4.10;99.90;;;;;;5094363;28;20236;-71
2023/03/18 03:37:00;;;;;;;14.93;10.23;;;4.10;99.90;;;;;;5094491;28;20201;-71
2023/03/18 03:39:27;;;;;;;16.07;10.60;;;4.10;99.90;;;;;;5093776;28;20673;-71
2023/03/18 03:41:54;;;;;;;14.90;10.60;;;4.10;99.90;;;;;;5094357;28;20235;-71
2023/03/18 03:44:20;;;;;;;14.33;11.07;;;4.20;99.90;;;;;;5094393;28;20287;-70
2023/03/18 03:46:47;;;;;;;14.83;10.97;;;4.20;99.90;;;;;;5094210;28;20239;-71
2023/03/18 03:49:15;;;;;;;12.27;10.60;;;4.20;99.90;;;;;;5094388;28;20203;-71
2023/03/18 03:51:42;;;;;;;14.87;10.83;;;4.20;99.90;;;;;;5094161;28;20565;-70
2023/03/18 03:54:08;;;;;;;14.10;10.10;;;4.20;99.90;;;;;;5094260;28;20336;-70
2023/03/18 03:56:35;;;;;;;13.37;10.73;;;4.20;99.90;;;;;;5094077;28;20228;-71
2023/03/18 03:59:03;;;;;;;14.07;10.33;;;4.20;99.90;;;;;;5093920;28;20232;-71
2023/03/18 04:01:30;;;;;;;14.73;10.97;;;4.20;99.90;;;;;;5094087;28;20200;-70
2023/03/18 04:03:56;;;;;;;12.27;10.43;;;4.20;99.90;;;;;;5093940;28;20254;-70
2023/03/18 04:06:24;;;;;;;15.40;10.57;;;4.10;99.90;;;;;;5094003;28;20232;-70
2023/03/18 04:08:51;;;;;;;14.17;10.33;;;4.10;99.90;;;;;;5093801;28;20249;-70
2023/03/18 04:11:19;;;;;;;13.03;9.97;;;4.00;99.90;;;;;;5093711;28;20254;-71
2023/03/18 04:13:45;;;;;;;12.33;10.17;;;4.00;99.90;;;;;;5093819;28;20340;-71
2023/03/18 04:16:13;;;;;;;12.63;10.00;;;4.00;99.90;;;;;;5093799;28;20239;-71
2023/03/18 04:18:40;;;;;;;13.90;9.87;;;4.00;99.90;;;;;;5093871;28;20320;-71
2023/03/18 04:21:07;;;;;;;13.20;10.37;;;4.00;99.90;;;;;;5093643;28;20232;-71
2023/03/18 04:23:35;;;;;;;13.03;10.03;;;4.00;99.90;;;;;;5093601;28;20660;-70
2023/03/18 04:26:01;;;;;;;12.10;9.87;;;4.00;99.90;;;;;;5093465;28;20234;-70
2023/03/18 04:28:28;;;;;;;12.80;9.33;;;4.00;99.90;;;;;;5093809;28;20208;-70
2023/03/18 04:30:55;;;;;;;13.97;9.80;;;3.90;99.90;;;;;;5093574;28;20647;-70
2023/03/18 04:33:21;;;;;;;12.17;10.00;;;3.80;99.90;;;;;;5093419;28;20274;-70
2023/03/18 04:35:48;;;;;;;13.83;10.37;;;3.80;99.90;;;;;;5093397;28;20257;-70
2023/03/18 04:38:15;;;;;;;12.17;10.30;;;3.90;99.90;;;;;;5093444;28;20200;-70
2023/03/18 04:40:44;;;;;;;14.30;10.67;;;3.90;99.90;;;;;;5093290;28;20196;-69
2023/03/18 04:43:11;;;;;;;16.97;10.80;;;3.90;99.90;;;;;;5093426;28;20222;-70
2023/03/18 04:45:37;;;;;;;13.27;10.00;;;3.80;99.90;;;;;;5093352;28;20257;-70
2023/03/18 04:48:04;;;;;;;11.97;9.73;;;3.70;99.90;;;;;;5093339;28;20196;-70
2023/03/18 04:50:31;;;;;;;13.33;10.37;;;3.70;99.90;;;;;;5092260;28;20232;-70
2023/03/18 04:52:58;;;;;;;12.17;9.47;;;3.70;99.90;;;;;;5093168;28;20200;-71
2023/03/18 04:55:25;;;;;;;13.90;10.60;;;3.70;99.90;;;;;;5093099;28;20219;-71
2023/03/18 04:57:53;;;;;;;13.07;10.33;;;3.70;99.90;;;;;;5093229;28;20227;-71
2023/03/18 05:00:21;;;;;;;15.93;10.03;;;3.70;99.90;;;;;;5093269;28;20224;-71
2023/03/18 05:02:48;;;;;;;14.63;10.00;;;3.70;99.90;;;;;;5093082;28;20292;-71
2023/03/18 05:05:14;;;;;;;16.40;10.10;;;3.70;99.90;;;;;;5092912;28;20195;-71
2023/03/18 05:07:42;;;;;;;12.17;9.30;;;3.60;99.90;;;;;;5092900;28;20615;-71
2023/03/18 05:10:10;;;;;;;14.27;10.07;;;3.60;99.90;;;;;;5092902;28;20696;-71
2023/03/18 05:12:36;;;;;;;13.63;10.00;;;3.60;99.90;;;;;;5092543;28;20274;-71
2023/03/18 05:15:06;;;;;;;12.17;9.53;;;3.50;99.90;;;;;;5092984;28;20207;-70
2023/03/18 05:17:32;;;;;;;15.30;10.43;;;3.50;99.90;;;;;;5092900;28;20241;-70
2023/03/18 05:19:59;;;;;;;13.37;9.77;;;3.50;99.90;;;;;;5092895;28;20231;-70
2023/03/18 05:22:26;;;;;;;12.83;9.93;;;3.50;99.90;;;;;;5092738;28;20238;-71
2023/03/18 05:24:52;;;;;;;12.73;10.00;;;3.60;99.90;;;;;;5093040;28;20203;-70
2023/03/18 05:27:20;;;;;;;15.13;11.40;;;3.60;99.90;;;;;;5092998;28;20231;-70
2023/03/18 05:29:47;;;;;;;13.20;10.70;;;3.60;99.90;;;;;;5092867;28;20231;-70
2023/03/18 05:32:15;;;;;;;14.63;12.00;;;3.60;99.90;;;;;;5092689;28;20248;-71
2023/03/18 05:34:42;;;;;;;14.07;11.57;;;3.50;99.90;;;;;;5092587;28;20616;-70
2023/03/18 05:37:11;;;;;;;18.70;11.13;;;3.50;99.90;;;;;;5092560;28;20196;-70
2023/03/18 05:39:38;;;;;;;13.43;10.90;;;3.50;99.90;;;;;;5092877;28;20237;-71
2023/03/18 05:42:06;;;;;;;13.90;10.77;;;3.40;99.90;;;;;;5092499;28;20196;-71
2023/03/18 05:44:33;;;;;;;11.63;9.97;;;3.40;99.90;;;;;;5092590;28;20652;-72
2023/03/18 05:46:59;;;;;;;14.57;11.53;;;3.40;99.90;;;;;;5092584;28;20238;-71
2023/03/18 05:49:27;;;;;;;13.70;9.93;;;3.40;99.90;;;;;;5092483;28;20263;-71
2023/03/18 05:51:54;;;;;;;13.67;10.30;;;3.40;99.90;;;;;;5092493;28;20263;-71
2023/03/18 05:54:21;;;;;;;12.63;9.93;;;3.40;99.90;;;;;;5092431;28;20200;-71
2023/03/18 05:56:51;;;;;;;15.20;10.83;;;3.40;99.90;;;;;;5092596;28;20630;-71
2023/03/18 05:59:18;;;;;;;12.40;10.00;;;3.50;99.90;;;;;;5092518;28;20242;-71
2023/03/18 06:01:45;;;;;;;14.07;10.70;;;3.50;99.90;;;;;;5093274;28;20231;-71
2023/03/18 06:04:12;;;;;;;15.70;11.37;;;3.60;99.90;;;;;;5096222;28;20199;-72
2023/03/18 06:06:40;;;;;;;12.23;10.57;;;3.60;99.90;;;;;;5096308;28;20239;-72
2023/03/18 06:09:08;;;;;;;14.47;10.80;;;3.60;99.90;;;;;;5096302;28;20207;-70
2023/03/18 06:11:35;;;;;;;14.07;10.93;;;3.70;99.90;;;;;;5096095;28;20218;-70
2023/03/18 06:14:03;;;;;;;14.63;10.50;;;3.90;99.90;;;;;;5096091;28;20207;-70
2023/03/18 06:16:30;;;;;;;13.20;10.80;;;4.00;99.90;;;;;;5095908;28;20204;-71
2023/03/18 06:18:57;;;;;;;14.53;10.87;;;4.10;99.90;;;;;;5095988;28;20227;-71
2023/03/18 06:21:24;;;;;;;21.07;13.43;;;4.20;99.90;;;;;;5096161;28;20207;-70
2023/03/18 06:23:52;;;;;;;13.53;11.07;;;4.30;99.90;;;;;;5096036;28;20239;-71
2023/03/18 06:26:19;;;;;;;15.47;11.10;;;4.40;99.90;;;;;;5095890;28;20205;-72
2023/03/18 06:28:46;;;;;;;16.13;10.10;;;4.40;99.90;;;;;;5095820;28;20200;-72
2023/03/18 06:31:13;;;;;;;18.87;11.20;;;4.50;99.90;;;;;;5095623;28;20242;-72
2023/03/18 06:33:40;;;;;;;12.87;9.47;;;4.60;99.90;;;;;;5095519;28;20764;-72
2023/03/18 06:36:09;;;;;;;12.17;9.67;;;4.60;99.90;;;;;;5095764;28;20575;-73
2023/03/18 06:38:36;;;;;;;14.83;9.40;;;4.80;99.90;;;;;;5095596;28;20563;-72
2023/03/18 06:41:05;;;;;;;12.60;9.53;;;4.90;99.90;;;;;;5095577;28;20200;-72
2023/03/18 06:43:32;;;;;;;12.80;9.67;;;4.90;99.90;;;;;;5095336;28;20204;-72
2023/03/18 06:45:58;;;;;;;13.20;9.77;;;5.00;99.90;;;;;;5095617;28;20200;-72
2023/03/18 06:48:25;;;;;;;10.73;9.17;;;5.10;99.90;;;;;;5095709;28;20235;-72
2023/03/18 06:50:53;;;;;;;11.30;8.80;;;5.10;99.90;;;;;;5095600;28;20224;-72
2023/03/18 06:53:20;;;;;;;13.17;9.00;;;5.30;99.90;;;;;;5095332;28;20232;-73
2023/03/18 06:55:47;;;;;;;19.50;9.13;;;5.40;99.90;;;;;;5095246;28;20232;-70
2023/03/18 06:58:16;;;;;;;11.23;9.17;;;5.40;99.90;;;;;;5095360;28;20598;-70
2023/03/18 07:00:44;;;;;;;10.80;9.27;;;5.60;99.90;;;;;;5095111;28;20678;-72
2023/03/18 07:03:10;;;;;;;12.27;8.40;;;5.80;99.90;;;;;;5095366;28;20235;-70
2023/03/18 07:05:37;;;;;;;11.77;9.17;;;6.00;99.90;;;;;;5095123;28;20568;-70
2023/03/18 07:08:04;;;;;;;15.27;9.40;;;6.20;99.90;;;;;;5095112;28;20279;-71
2023/03/18 07:10:31;;;;;;;12.20;9.63;;;6.40;99.90;;;;;;5095074;28;20204;-70
2023/03/18 07:12:59;;;;;;;11.27;9.10;;;6.50;99.90;;;;;;5094229;28;20619;-70
2023/03/18 07:15:27;;;;;;;11.97;9.10;;;6.60;99.90;;;;;;5094706;28;20205;-70
2023/03/18 07:17:54;;;;;;;10.40;8.60;;;6.90;99.90;;;;;;5094976;28;20201;-70
2023/03/18 07:20:22;;;;;;;11.63;8.40;;;7.00;99.90;;;;;;5094856;28;20228;-70
2023/03/18 07:22:50;;;;;;;11.33;9.37;;;7.10;99.90;;;;;;5094698;28;20207;-70
2023/03/18 07:25:17;;;;;;;10.93;9.33;;;7.30;99.90;;;;;;5094654;28;20861;-66
2023/03/18 07:27:44;;;;;;;10.93;8.93;;;7.20;99.90;;;;;;5094753;28;20237;-72
2023/03/18 07:30:12;;;;;;;10.83;8.80;;;7.50;99.90;;;;;;5094670;28;20200;-74
2023/03/18 07:32:40;;;;;;;10.53;8.80;;;7.60;99.90;;;;;;5094220;28;20228;-72
2023/03/18 07:35:09;;;;;;;20.60;14.70;;;7.80;99.90;;;;;;5094581;28;20228;-72
2023/03/18 07:37:36;;;;;;;10.73;9.63;;;7.90;99.90;;;;;;5094313;28;20663;-72
2023/03/18 07:40:03;;;;;;;11.73;9.53;;;8.10;99.90;;;;;;5094288;28;20636;-72
2023/03/18 07:42:30;;;;;;;12.83;8.90;;;8.30;99.90;;;;;;5094365;28;20674;-74
2023/03/18 07:44:56;;;;;;;10.50;8.47;;;8.40;99.90;;;;;;5094376;28;20224;-73
2023/03/18 07:47:23;;;;;;;11.23;8.40;;;8.50;99.90;;;;;;5094188;28;20200;-73
2023/03/18 07:49:51;;;;;;;12.27;9.00;;;8.70;99.90;;;;;;5094195;28;20208;-72
2023/03/18 07:52:18;;;;;;;11.80;8.80;;;8.80;99.90;;;;;;5093799;28;20224;-73
2023/03/18 07:54:45;;;;;;;11.00;9.30;;;8.90;99.90;;;;;;5093864;28;20612;-75
2023/03/18 07:57:12;;;;;;;11.90;9.93;;;9.00;99.90;;;;;;5094041;28;20231;-70
2023/03/18 07:59:39;;;;;;;11.83;9.60;;;9.10;99.90;;;;;;5094096;28;20246;-75
2023/03/18 08:02:06;;;;;;;11.63;9.23;;;9.30;99.90;;;;;;5093909;28;20204;-75
2023/03/18 08:04:35;;;;;;;12.00;9.37;;;9.50;99.90;;;;;;5093839;28;20296;-75
2023/03/18 08:07:03;;;;;;;14.00;10.00;;;9.70;99.90;;;;;;5093828;28;20250;-75
2023/03/18 08:09:29;;;;;;;12.93;10.17;;;9.90;99.90;;;;;;5094080;28;20236;-72
2023/03/18 08:11:56;;;;;;;16.10;10.13;;;10.20;99.90;;;;;;5093839;28;20251;-72
2023/03/18 08:14:23;;;;;;;11.67;9.60;;;10.40;99.90;;;;;;5093724;28;20249;-74
2023/03/18 08:16:49;;;;;;;16.73;10.80;;;10.70;99.90;;;;;;5093702;28;20224;-75
2023/03/18 08:19:16;;;;;;;15.93;9.80;;;11.00;99.90;;;;;;5093563;28;20227;-73
2023/03/18 08:21:43;;;;;;;16.33;8.43;;;11.20;99.90;;;;;;5093532;28;20657;-74
2023/03/18 08:24:11;;;;;;;11.87;7.83;;;11.40;99.90;;;;;;5093699;28;20200;-76
2023/03/18 08:26:38;;;;;;;14.93;8.27;;;11.60;99.90;;;;;;5093599;28;20200;-77
2023/03/18 08:29:05;;;;;;;11.63;8.60;;;11.90;99.90;;;;;;5093484;28;20250;-74
2023/03/18 08:31:31;;;;;;;10.07;7.43;;;12.00;99.90;;;;;;5093320;28;20656;-74
2023/03/18 08:33:59;;;;;;;15.90;7.63;;;12.30;99.90;;;;;;5093001;28;20243;-74
2023/03/18 08:36:27;;;;;;;14.33;7.33;;;12.60;99.90;;;;;;5093229;28;20201;-73
2023/03/18 08:38:54;;;;;;;9.63;6.33;;;12.80;99.90;;;;;;5093365;28;20203;-71
2023/03/18 08:41:24;;;;;;;10.97;6.50;;;13.10;99.90;;;;;;5093316;28;20228;-71
2023/03/18 08:43:51;;;;;;;9.93;5.20;;;13.40;99.90;;;;;;5093279;28;20586;-70
2023/03/18 08:46:18;;;;;;;12.87;4.80;;;13.70;99.90;;;;;;5093170;28;20192;-72
2023/03/18 08:48:45;;;;;;;6.00;3.47;;;13.90;99.90;;;;;;5092966;28;20199;-72
2023/03/18 08:51:12;;;;;;;5.40;3.50;;;14.00;99.90;;;;;;5093246;28;20235;-72
2023/03/18 08:53:39;;;;;;;23.60;19.47;;;14.00;99.90;;;;;;5092941;28;20263;-72
2023/03/18 08:56:06;;;;;;;5.50;3.13;;;13.90;99.90;;;;;;5092949;28;20652;-71
2023/03/18 08:58:34;;;;;;;25.33;21.67;;;14.00;99.90;;;;;;5092823;28;20200;-71
2023/03/18 09:01:04;;;;;;;17.03;14.60;;;14.00;99.90;;;;;;5092931;28;20204;-75
2023/03/18 09:03:30;;;;;;;4.47;3.00;;;14.00;99.90;;;;;;5093297;28;20196;-77
2023/03/18 09:05:57;;;;;;;4.30;2.60;;;14.10;99.20;;;;;;5093925;28;20228;-85
2023/03/18 09:08:24;;;;;;;7.93;4.27;;;13.90;99.00;;;;;;5093071;28;20204;-79
2023/03/18 09:10:52;;;;;;;8.47;3.47;;;14.00;99.00;;;;;;5093357;28;20232;-72
2023/03/18 09:13:18;;;;;;;5.40;2.80;;;14.20;99.20;;;;;;5092841;28;20223;-82
2023/03/18 09:15:46;;;;;;;6.40;3.30;;;14.20;98.50;;;;;;5093728;28;20242;-85
2023/03/18 09:18:13;;;;;;;6.23;2.80;;;14.50;98.20;;;;;;5095290;28;20236;-85
2023/03/18 09:20:41;;;;;;;11.80;5.50;;;14.40;97.30;;;;;;5092937;28;20242;-74
2023/03/18 09:23:08;;;;;;;46.97;30.03;;;14.90;97.40;;;;;;5092504;28;20678;-74
2023/03/18 09:25:34;;;;;;;5.95;2.60;;;15.30;96.10;;;;;;5092307;28;20541;-74
2023/03/18 09:28:02;;;;;;;15.50;11.48;;;15.30;94.70;;;;;;5092601;28;20229;-79
2023/03/18 09:30:28;;;;;;;11.43;6.55;;;15.70;95.20;;;;;;5092445;28;20235;-72
2023/03/18 09:32:56;;;;;;;4.10;2.35;;;16.10;94.70;;;;;;5092534;28;20232;-82
2023/03/18 09:35:24;;;;;;;3.38;2.15;;;16.00;92.10;;;;;;5092581;28;20664;-71
2023/03/18 09:37:50;;;;;;;3.15;2.60;;;15.90;91.70;;;;;;5095200;28;20663;-72
2023/03/18 09:40:24;;;;;;;5.00;2.55;;;15.70;91.20;;;;;;5096605;28;20199;-72
2023/03/18 09:43:10;;;;;;;3.92;2.17;;;15.80;91.00;;;;;;5096506;28;20231;-72
2023/03/18 09:45:48;;;;;;;5.65;2.60;;;16.10;90.10;;;;;;5096776;28;20249;-72
2023/03/18 09:48:46;;;;;;;7.43;2.55;;;16.70;88.50;;;;;;5096425;28;20274;-71
2023/03/18 09:51:27;;;;;;;5.13;2.55;;;16.90;86.20;;;;;;5095248;28;20732;-72
2023/03/18 09:53:58;;;;;;;3.75;2.50;;;16.50;85.70;;;;;;5096572;28;20235;-74
2023/03/18 09:56:29;;;;;;;3.85;2.53;;;16.60;85.00;;;;;;5096239;28;20196;-72
2023/03/18 09:59:02;;;;;;;5.60;2.50;;;17.00;85.60;;;;;;5096341;28;20208;-71
2023/03/18 10:01:30;;;;;;;3.97;2.60;;;16.90;81.40;;;;;;5096194;28;20210;-72
2023/03/18 10:04:04;;;;;;;4.47;2.60;;;17.00;81.60;;;;;;5096396;28;20203;-73
2023/03/18 10:06:31;;;;;;;3.92;2.45;;;17.40;80.40;;;;;;5096206;28;20235;-74
2023/03/18 10:09:06;;;;;;;4.20;2.47;;;17.60;78.40;;;;;;5095990;28;20311;-75
2023/03/18 10:11:38;;;;;;;3.80;2.42;;;17.50;77.30;;;;;;5096147;28;20196;-75
2023/03/18 10:14:21;;;;;;;4.55;2.60;;;17.80;74.60;;;;;;5095878;28;20252;-71
2023/03/18 10:16:58;;;;;;;6.07;2.90;;;17.80;75.60;;;;;;5096163;28;20200;-73
2023/03/18 10:19:27;;;;;;;3.13;2.10;;;18.10;71.80;;;;;;5096020;28;20287;-77
2023/03/18 10:22:06;;;;;;;2.53;2.20;;;18.50;72.10;;;;;;5095841;28;20228;-71
2023/03/18 10:24:41;;;;;;;3.70;2.13;;;19.10;68.70;;;;;;5096416;28;20235;-82
2023/03/18 10:27:17;;;;;;;4.88;2.47;;;19.80;67.30;;;;;;5096491;28;20560;-90
2023/03/18 10:29:49;;;;;;;3.95;2.20;;;19.70;61.10;;;;;;5095976;28;20204;-79
2023/03/18 10:32:28;;;;;;;4.10;2.30;;;19.50;59.30;;;;;;5095877;28;20192;-75
2023/03/18 10:35:05;;;;;;;5.05;2.30;;;19.30;58.80;;;;;;5095695;28;20196;-75
2023/03/18 10:37:42;;;;;;;5.03;2.78;;;20.00;59.50;;;;;;5095954;28;20663;-73
2023/03/18 10:40:14;;;;;;;3.70;2.72;;;20.80;61.20;;;;;;5095699;28;20279;-74
2023/03/18 10:42:41;;;;;;;3.65;2.72;;;21.30;56.00;;;;;;5095413;28;20207;-75
2023/03/18 10:45:17;;;;;;;5.07;2.80;;;21.00;54.40;;;;;;5095429;28;20226;-76
2023/03/18 10:47:50;;;;;;;4.80;2.83;;;21.20;54.50;;;;;;5094710;28;20294;-74
2023/03/18 10:50:23;;;;;;;5.03;2.75;;;20.80;54.50;;;;;;5094946;28;20200;-74
2023/03/18 10:52:57;;;;;;;4.55;2.80;;;21.70;54.10;;;;;;5095289;28;20655;-73
2023/03/18 10:55:27;;;;;;;6.35;2.85;;;21.70;50.80;;;;;;5095219;28;20254;-78
2023/03/18 10:57:54;;;;;;;4.53;2.28;;;22.70;50.20;;;;;;5095042;28;20214;-77
2023/03/18 11:00:28;;;;;;;4.82;2.40;;;23.30;47.60;;;;;;5094980;28;20660;-79
2023/03/18 11:02:55;;;;;;;4.32;2.45;;;22.80;43.70;;;;;;5095128;28;20210;-78
2023/03/18 11:05:25;;;;;;;2.53;1.80;;;22.20;41.90;;;;;;5095234;28;20283;-77
2023/03/18 11:07:57;;;;;;;3.95;2.30;;;22.30;42.00;;;;;;5094981;28;20234;-82
2023/03/18 11:10:26;;;;;;;3.70;2.35;;;23.10;41.50;;;;;;5094846;28;20197;-79
2023/03/18 11:12:57;;;;;;;3.60;2.13;;;23.50;41.70;;;;;;5095117;28;20199;-79
2023/03/18 11:15:25;;;;;;;2.95;2.13;;;23.50;40.60;;;;;;5094935;28;20270;-80
2023/03/18 11:17:58;;;;;;;5.05;2.70;;;23.70;39.10;;;;;;5094627;28;20196;-79
2023/03/18 11:20:41;;;;;;;6.97;2.70;;;24.00;39.30;;;;;;5093651;28;20660;-79
2023/03/18 11:23:16;;;;;;;5.18;2.53;;;23.10;38.60;;;;;;5076506;28;20269;-79
2023/03/18 11:25:45;;;;;;;3.13;2.35;;;22.90;39.10;;;;;;5094768;28;20295;-79
2023/03/18 11:28:20;;;;;;;5.20;2.40;;;23.70;37.70;;;;;;5094705;28;20251;-78
2023/03/18 11:30:50;;;;;;;4.32;2.03;;;22.70;37.60;;;;;;5094539;28;20191;-78
2023/03/18 11:33:18;;;;;;;5.00;2.30;;;23.40;35.10;;;;;;5094243;28;20228;-78
2023/03/18 11:35:52;;;;;;;4.00;2.42;;;23.40;37.10;;;;;;5094374;28;20646;-80
2023/03/18 11:38:20;;;;;;;3.85;2.45;;;24.90;37.30;;;;;;5094498;28;20269;-80
2023/03/18 11:40:47;;;;;;;8.63;2.40;;;26.30;35.00;;;;;;5094386;28;20223;-80
2023/03/18 11:43:18;;;;;;;2.60;1.90;;;26.20;31.80;;;;;;5094124;28;20226;-81
2023/03/18 11:45:59;;;;;;;4.13;2.28;;;25.60;31.80;;;;;;5094234;28;20193;-80
2023/03/18 11:48:35;;;;;;;3.05;2.00;;;24.50;31.50;;;;;;5094348;28;20224;-80
2023/03/18 11:51:39;;;;;;;5.85;2.35;;;24.10;32.30;;;;;;5094323;28;20551;-80
2023/03/18 11:54:19;;;;;;;3.78;2.60;;;24.60;32.00;;;;;;5093959;28;20203;-79
2023/03/18 11:56:49;;;;;;;3.47;2.28;;;26.20;33.10;;;;;;5094212;28;20196;-79
2023/03/18 11:59:46;;;;;;;2.95;2.17;;;27.20;30.00;;;;;;5093568;28;20234;-80
2023/03/18 12:02:26;;;;;;;4.88;2.38;;;26.00;29.30;;;;;;5093790;28;20257;-79
2023/03/18 12:05:20;;;;;;;4.05;2.50;;;24.50;31.60;;;;;;5093642;28;20219;-78
2023/03/18 12:08:02;;;;;;;3.63;2.47;;;25.10;31.10;;;;;;5093780;28;20248;-78
2023/03/18 12:10:34;;;;;;;3.70;2.53;;;26.40;31.10;;;;;;5094007;28;20196;-86
2023/03/18 12:13:30;;;;;;;4.85;2.58;;;26.70;29.20;;;;;;5093393;28;20713;-83
2023/03/18 12:16:06;;;;;;;7.20;2.53;;;27.10;29.80;;;;;;5076984;28;20196;-74
2023/03/18 12:18:43;;;;;;;3.30;2.40;;;28.00;27.80;;;;;;5080162;28;20233;-79
2023/03/18 12:21:29;;;;;;;4.43;2.45;;;28.10;28.20;;;;;;5090866;28;20235;-77
2023/03/18 12:24:07;;;;;;;2.50;2.30;;;26.90;27.20;;;;;;5091138;28;20251;-76
2023/03/18 12:26:40;;;;;;;2.25;2.05;;;27.30;27.90;;;;;;5091160;28;20199;-75
2023/03/18 12:29:30;;;;;;;3.92;2.40;;;28.50;27.90;;;;;;5090670;28;20261;-77
2023/03/18 12:32:07;;;;;;;3.65;2.53;;;28.40;25.70;;;;;;5091265;28;20234;-76
2023/03/18 12:34:54;;;;;;;3.65;2.28;;;28.80;26.50;;;;;;5090339;28;20251;-76
2023/03/18 12:37:33;;;;;;;2.80;2.15;;;29.50;27.50;;;;;;5090885;28;20262;-75
2023/03/18 12:40:13;;;;;;;3.22;2.63;;;28.90;25.70;;;;;;5070636;28;20196;-81
2023/03/18 12:43:03;;;;;;;3.08;2.35;;;28.70;25.20;;;;;;5071944;28;20246;-79
2023/03/18 12:45:35;;;;;;;3.20;2.67;;;29.60;26.00;;;;;;5090439;28;20781;-78
2023/03/18 12:48:08;;;;;;;3.60;2.60;;;31.20;25.30;;;;;;5090738;28;20238;-81
2023/03/18 12:50:38;;;;;;;4.40;2.63;;;30.50;23.90;;;;;;5090797;28;20273;-77
2023/03/18 12:53:11;;;;;;;3.28;2.47;;;30.60;23.40;;;;;;5091260;28;20274;-77
2023/03/18 12:55:41;;;;;;;2.63;2.22;;;30.80;23.40;;;;;;5090635;28;20199;-76